CDT,Max TemperatureF,Mean TemperatureF,Min TemperatureF,Max Dew PointF,MeanDew PointF,Min DewpointF,Max Humidity, Mean Humidity, Min Humidity, Max Sea Level PressureIn, Mean Sea Level PressureIn, Min Sea Level PressureIn, Max VisibilityMiles, Mean VisibilityMiles, Min VisibilityMiles, Max Wind SpeedMPH, Mean Wind SpeedMPH, Max Gust SpeedMPH,PrecipitationIn, CloudCover, Events, WindDirDegrees
2011-10-1,64,53,42,41,36,28,87,56,26,30.28,30.21,30.12,10,10,10,14,6,18,0.00,0,,323
2011-10-2,69,53,37,43,34,23,93,56,17,30.30,30.25,30.17,10,10,10,8,4,,0.00,0,,317
2011-10-3,78,58,39,45,36,27,93,51,16,30.25,30.20,30.17,10,10,2,7,2,,0.00,0,,298
2011-10-4,80,62,44,50,42,36,87,56,20,30.30,30.24,30.20,10,10,7,6,1,,0.00,0,,332
2011-10-5,82,63,44,52,45,36,94,61,19,30.29,30.23,30.18,10,9,2,8,1,,0.00,0,,137
2011-10-6,86,66,46,54,48,45,94,62,23,30.27,30.22,30.19,10,10,7,12,2,16,0.00,0,,129
2011-10-7,84,67,50,55,51,46,94,62,27,30.34,30.28,30.24,10,10,5,13,3,17,0.00,0,,149
2011-10-8,82,66,50,57,50,43,94,63,26,30.36,30.30,30.27,10,8,0,15,4,20,0.00,0,Fog,138
2011-10-9,82,63,44,52,45,37,93,51,20,30.35,30.26,30.19,10,9,1,10,1,,0.00,0,,84
2011-10-10,80,64,48,54,50,45,88,63,34,30.21,30.13,30.06,10,10,7,12,2,20,0.00,0,,125
2011-10-11,80,66,51,57,51,45,94,63,28,30.03,29.97,29.89,10,9,1,8,1,,0.00,1,,64
2011-10-12,78,64,51,61,56,48,94,84,44,29.89,29.80,29.71,10,7,1,12,2,16,0.65,2,Rain-Thunderstorm,124
2011-10-13,69,64,60,61,57,46,94,81,52,29.68,29.61,29.58,10,8,2,17,5,26,0.64,6,Rain,243
2011-10-14,71,61,51,45,36,27,76,45,20,29.88,29.77,29.68,10,10,10,29,11,39,0.00,0,,250
2011-10-15,68,56,44,37,34,30,71,46,24,30.06,30.00,29.92,10,10,5,21,10,26,0.00,0,,242
2011-10-16,86,66,46,46,41,37,76,41,20,29.99,29.89,29.79,10,10,7,22,11,29,0.00,1,,212
2011-10-17,64,52,41,41,33,25,87,50,24,30.02,29.97,29.90,10,10,10,14,3,,0.00,1,Thunderstorm,294
2011-10-18,50,47,44,45,43,39,93,87,76,29.92,29.84,29.79,10,9,1,13,8,23,0.89,7,Rain,327
2011-10-19,46,45,44,45,42,39,93,86,81,29.75,29.66,29.62,10,9,5,22,12,30,0.20,8,Rain,301
2011-10-20,51,46,42,41,35,32,87,65,47,29.95,29.77,29.63,10,10,10,22,17,34,0.02,8,Rain,274
2011-10-21,60,50,39,34,32,27,81,56,27,30.15,30.09,30.00,10,10,10,14,7,20,0.00,0,,260
2011-10-22,69,50,32,41,35,32,100,64,25,30.16,30.10,30.05,10,10,10,10,2,,0.00,0,,175
2011-10-23,73,58,42,50,45,41,93,68,33,30.07,30.02,29.97,10,10,10,13,3,16,0.00,2,Rain,158
2011-10-24,69,60,46,50,43,30,88,58,23,30.18,30.10,29.99,10,10,10,14,8,20,0.00,1,Rain,252
2011-10-25,78,60,42,50,42,36,81,50,22,30.17,30.02,29.87,10,10,10,24,9,34,0.00,0,,161
2011-10-26,69,60,51,52,49,43,94,61,38,29.92,29.87,29.83,10,8,2,18,12,24,0.12,3,Rain,237
2011-10-27,53,50,46,46,40,34,87,71,47,30.12,30.00,29.91,10,8,4,14,8,21,0.00,5,Rain,325
2011-10-28,55,47,39,39,35,28,87,66,36,30.21,30.16,30.10,10,10,5,6,3,,0.00,1,,341
2011-10-29,60,46,32,36,27,12,100,58,15,30.16,30.13,30.09,10,10,10,20,6,26,0.00,0,,255
2011-10-30,64,48,33,36,30,25,93,50,22,30.20,30.11,30.03,10,10,10,23,7,30,0.00,2,Rain,165
2011-10-31,59,47,35,41,33,28,87,58,31,30.18,30.10,30.04,10,10,10,16,8,21,0.00,1,Rain,239